sensor_id;sensor_type;location;lat;lon;timestamp;pressure;altitude;pressure_sealevel;temperature;humidity
11448;BME280;43755;49.736;8.734;2022-10-23T00:01:49;97923.25;;;12.65;100.00
11448;BME280;43755;49.736;8.734;2022-10-23T00:03:52;97915.03;;;12.87;100.00
11448;BME280;43755;49.736;8.734;2022-10-23T00:05:54;97912.31;;;13.04;100.00
11448;BME280;43755;49.736;8.734;2022-10-23T00:07:58;97924.56;;;13.24;100.00
11448;BME280;43755;49.736;8.734;2022-10-23T00:09:59;97924.47;;;13.41;100.00
11448;BME280;43755;49.736;8.734;2022-10-23T00:12:01;97930.31;;;13.48;100.00
11448;BME280;43755;49.736;8.734;2022-10-23T00:14:05;97926.13;;;13.60;100.00
11448;BME280;43755;49.736;8.734;2022-10-23T00:16:07;97917.03;;;13.64;100.00
11448;BME280;43755;49.736;8.734;2022-10-23T00:18:09;97912.38;;;13.83;100.00
11448;BME280;43755;49.736;8.734;2022-10-23T00:20:12;97907.22;;;13.96;100.00
11448;BME280;43755;49.736;8.734;2022-10-23T00:22:14;97900.69;;;14.01;100.00
11448;BME280;43755;49.736;8.734;2022-10-23T00:24:15;97903.16;;;14.04;100.00
11448;BME280;43755;49.736;8.734;2022-10-23T00:26:17;97904.09;;;14.03;100.00
11448;BME280;43755;49.736;8.734;2022-10-23T00:28:18;97907.34;;;14.08;100.00
11448;BME280;43755;49.736;8.734;2022-10-23T00:30:21;97903.06;;;14.06;100.00
11448;BME280;43755;49.736;8.734;2022-10-23T00:32:22;97906.69;;;14.05;100.00
11448;BME280;43755;49.736;8.734;2022-10-23T00:34:24;97902.31;;;14.04;100.00
11448;BME280;43755;49.736;8.734;2022-10-23T00:36:26;97906.50;;;14.08;100.00
11448;BME280;43755;49.736;8.734;2022-10-23T00:38:27;97904.81;;;14.21;100.00
11448;BME280;43755;49.736;8.734;2022-10-23T00:40:28;97899.56;;;14.35;100.00
11448;BME280;43755;49.736;8.734;2022-10-23T00:42:30;97898.78;;;14.49;100.00
11448;BME280;43755;49.736;8.734;2022-10-23T00:45:12;97898.78;;;14.63;100.00
11448;BME280;43755;49.736;8.734;2022-10-23T00:47:15;97894.97;;;14.67;100.00
11448;BME280;43755;49.736;8.734;2022-10-23T00:49:17;97886.91;;;14.68;100.00
11448;BME280;43755;49.736;8.734;2022-10-23T00:51:20;97885.09;;;14.69;100.00
11448;BME280;43755;49.736;8.734;2022-10-23T00:53:22;97877.41;;;14.79;100.00
11448;BME280;43755;49.736;8.734;2022-10-23T00:55:25;97878.25;;;14.79;100.00
11448;BME280;43755;49.736;8.734;2022-10-23T00:57:27;97870.19;;;14.81;100.00
11448;BME280;43755;49.736;8.734;2022-10-23T00:59:28;97870.00;;;14.84;100.00
11448;BME280;43755;49.736;8.734;2022-10-23T01:01:31;97868.28;;;14.83;100.00
11448;BME280;43755;49.736;8.734;2022-10-23T01:03:33;97864.38;;;14.88;100.00
11448;BME280;43755;49.736;8.734;2022-10-23T01:05:40;97868.19;;;14.84;100.00
11448;BME280;43755;49.736;8.734;2022-10-23T01:07:49;97866.66;;;14.80;100.00
11448;BME280;43755;49.736;8.734;2022-10-23T01:09:59;97862.84;;;14.70;100.00
11448;BME280;43755;49.736;8.734;2022-10-23T01:12:08;97851.25;;;14.71;100.00
11448;BME280;43755;49.736;8.734;2022-10-23T01:14:22;97846.22;;;14.81;100.00
11448;BME280;43755;49.736;8.734;2022-10-23T01:16:33;97843.25;;;14.85;100.00
11448;BME280;43755;49.736;8.734;2022-10-23T01:18:40;97845.66;;;14.90;100.00
11448;BME280;43755;49.736;8.734;2022-10-23T01:20:48;97839.34;;;14.91;100.00
11448;BME280;43755;49.736;8.734;2022-10-23T01:23:04;97843.25;;;14.99;100.00
11448;BME280;43755;49.736;8.734;2022-10-23T01:25:20;97830.78;;;15.00;100.00
11448;BME280;43755;49.736;8.734;2022-10-23T01:27:26;97840.31;;;15.04;100.00
11448;BME280;43755;49.736;8.734;2022-10-23T01:29:35;97834.97;;;15.04;100.00
11448;BME280;43755;49.736;8.734;2022-10-23T01:31:44;97840.00;;;15.08;100.00
11448;BME280;43755;49.736;8.734;2022-10-23T01:33:50;97836.78;;;15.03;100.00
11448;BME280;43755;49.736;8.734;2022-10-23T01:35:59;97837.16;;;14.97;100.00
11448;BME280;43755;49.736;8.734;2022-10-23T01:38:04;97837.84;;;14.87;100.00
11448;BME280;43755;49.736;8.734;2022-10-23T01:40:11;97837.19;;;14.83;100.00
11448;BME280;43755;49.736;8.734;2022-10-23T01:42:18;97830.69;;;14.73;100.00
11448;BME280;43755;49.736;8.734;2022-10-23T01:44:26;97836.59;;;14.64;100.00
11448;BME280;43755;49.736;8.734;2022-10-23T01:46:31;97836.50;;;14.51;100.00
11448;BME280;43755;49.736;8.734;2022-10-23T01:48:35;97841.81;;;14.51;100.00
11448;BME280;43755;49.736;8.734;2022-10-23T01:50:38;97845.13;;;14.41;100.00
11448;BME280;43755;49.736;8.734;2022-10-23T01:52:40;97836.84;;;14.31;100.00
11448;BME280;43755;49.736;8.734;2022-10-23T01:54:43;97831.50;;;14.31;100.00
11448;BME280;43755;49.736;8.734;2022-10-23T01:56:47;97835.28;;;14.27;100.00
11448;BME280;43755;49.736;8.734;2022-10-23T01:58:52;97833.69;;;14.24;100.00
11448;BME280;43755;49.736;8.734;2022-10-23T02:01:00;97832.25;;;14.19;100.00
11448;BME280;43755;49.736;8.734;2022-10-23T02:03:05;97830.69;;;14.15;100.00
11448;BME280;43755;49.736;8.734;2022-10-23T02:05:10;97831.63;;;14.14;100.00
11448;BME280;43755;49.736;8.734;2022-10-23T02:07:12;97826.31;;;14.14;100.00
11448;BME280;43755;49.736;8.734;2022-10-23T02:09:14;97809.69;;;14.10;100.00
11448;BME280;43755;49.736;8.734;2022-10-23T02:11:17;97809.91;;;14.07;100.00
11448;BME280;43755;49.736;8.734;2022-10-23T02:13:24;97807.81;;;14.12;100.00
11448;BME280;43755;49.736;8.734;2022-10-23T02:15:35;97799.72;;;14.14;100.00
11448;BME280;43755;49.736;8.734;2022-10-23T02:17:48;97802.00;;;14.20;100.00
11448;BME280;43755;49.736;8.734;2022-10-23T02:19:56;97800.69;;;14.27;100.00
11448;BME280;43755;49.736;8.734;2022-10-23T02:22:05;97797.25;;;14.41;100.00
11448;BME280;43755;49.736;8.734;2022-10-23T02:24:10;97797.16;;;14.42;100.00
11448;BME280;43755;49.736;8.734;2022-10-23T02:26:16;97792.94;;;14.38;100.00
11448;BME280;43755;49.736;8.734;2022-10-23T02:28:25;97795.06;;;14.47;100.00
11448;BME280;43755;49.736;8.734;2022-10-23T02:30:29;97794.97;;;14.49;100.00
11448;BME280;43755;49.736;8.734;2022-10-23T02:32:31;97792.56;;;14.44;100.00
11448;BME280;43755;49.736;8.734;2022-10-23T02:34:35;97789.53;;;14.50;100.00
11448;BME280;43755;49.736;8.734;2022-10-23T02:36:37;97790.22;;;14.54;100.00
11448;BME280;43755;49.736;8.734;2022-10-23T02:38:40;97786.09;;;14.62;100.00
11448;BME280;43755;49.736;8.734;2022-10-23T02:40:43;97786.19;;;14.75;100.00
11448;BME280;43755;49.736;8.734;2022-10-23T02:42:51;97777.06;;;14.79;100.00
11448;BME280;43755;49.736;8.734;2022-10-23T02:45:02;97789.13;;;14.85;100.00
11448;BME280;43755;49.736;8.734;2022-10-23T02:47:19;97785.25;;;14.90;100.00
11448;BME280;43755;49.736;8.734;2022-10-23T02:49:28;97781.72;;;14.90;100.00
11448;BME280;43755;49.736;8.734;2022-10-23T02:51:43;97777.25;;;14.90;100.00
11448;BME280;43755;49.736;8.734;2022-10-23T02:53:57;97774.59;;;14.90;100.00
11448;BME280;43755;49.736;8.734;2022-10-23T02:56:04;97772.13;;;14.87;100.00
11448;BME280;43755;49.736;8.734;2022-10-23T02:58:14;97769.44;;;14.87;100.00
11448;BME280;43755;49.736;8.734;2022-10-23T03:00:20;97771.34;;;14.85;100.00
11448;BME280;43755;49.736;8.734;2022-10-23T03:02:24;97783.16;;;14.81;100.00
11448;BME280;43755;49.736;8.734;2022-10-23T03:04:27;97785.25;;;14.76;100.00
11448;BME280;43755;49.736;8.734;2022-10-23T03:06:28;97775.75;;;14.72;100.00
11448;BME280;43755;49.736;8.734;2022-10-23T03:08:40;97773.97;;;14.72;100.00
11448;BME280;43755;49.736;8.734;2022-10-23T03:10:42;97768.72;;;14.71;100.00
11448;BME280;43755;49.736;8.734;2022-10-23T03:12:43;97766.78;;;14.73;100.00
11448;BME280;43755;49.736;8.734;2022-10-23T03:14:46;97763.19;;;14.74;100.00
11448;BME280;43755;49.736;8.734;2022-10-23T03:16:47;97771.19;;;14.74;100.00
11448;BME280;43755;49.736;8.734;2022-10-23T03:18:49;97769.56;;;14.71;100.00
11448;BME280;43755;49.736;8.734;2022-10-23T03:20:50;97772.97;;;14.73;100.00
11448;BME280;43755;49.736;8.734;2022-10-23T03:22:51;97774.91;;;14.71;100.00
11448;BME280;43755;49.736;8.734;2022-10-23T03:24:54;97772.31;;;14.70;100.00
11448;BME280;43755;49.736;8.734;2022-10-23T03:26:55;97762.53;;;14.70;100.00
11448;BME280;43755;49.736;8.734;2022-10-23T03:28:57;97760.72;;;14.71;100.00
11448;BME280;43755;49.736;8.734;2022-10-23T03:30:58;97747.41;;;14.71;100.00
11448;BME280;43755;49.736;8.734;2022-10-23T03:33:01;97743.81;;;14.72;100.00
11448;BME280;43755;49.736;8.734;2022-10-23T03:35:03;97741.88;;;14.74;100.00
11448;BME280;43755;49.736;8.734;2022-10-23T03:37:05;97745.69;;;14.70;100.00
11448;BME280;43755;49.736;8.734;2022-10-23T03:39:06;97743.81;;;14.72;100.00
11448;BME280;43755;49.736;8.734;2022-10-23T03:41:09;97744.38;;;14.63;100.00
11448;BME280;43755;49.736;8.734;2022-10-23T03:43:10;97755.03;;;14.63;100.00
11448;BME280;43755;49.736;8.734;2022-10-23T03:45:12;97750.75;;;14.60;100.00
11448;BME280;43755;49.736;8.734;2022-10-23T03:47:13;97753.91;;;14.53;100.00
11448;BME280;43755;49.736;8.734;2022-10-23T03:49:14;97759.31;;;14.51;100.00
11448;BME280;43755;49.736;8.734;2022-10-23T03:51:16;97753.34;;;14.48;100.00
11448;BME280;43755;49.736;8.734;2022-10-23T03:53:17;97745.91;;;14.53;100.00
11448;BME280;43755;49.736;8.734;2022-10-23T03:55:19;97746.09;;;14.50;100.00
11448;BME280;43755;49.736;8.734;2022-10-23T03:57:22;97745.59;;;14.43;100.00
11448;BME280;43755;49.736;8.734;2022-10-23T03:59:24;97757.56;;;14.36;100.00
11448;BME280;43755;49.736;8.734;2022-10-23T04:01:25;97750.53;;;14.35;100.00
11448;BME280;43755;49.736;8.734;2022-10-23T04:03:27;97756.16;;;14.45;100.00
11448;BME280;43755;49.736;8.734;2022-10-23T04:05:28;97757.88;;;14.46;100.00
11448;BME280;43755;49.736;8.734;2022-10-23T04:07:29;97754.28;;;14.47;100.00
11448;BME280;43755;49.736;8.734;2022-10-23T04:09:31;97759.22;;;14.53;100.00
11448;BME280;43755;49.736;8.734;2022-10-23T04:11:32;97750.66;;;14.48;100.00
11448;BME280;43755;49.736;8.734;2022-10-23T04:13:35;97743.03;;;14.56;100.00
11448;BME280;43755;49.736;8.734;2022-10-23T04:15:37;97742.66;;;14.62;100.00
11448;BME280;43755;49.736;8.734;2022-10-23T04:17:38;97752.34;;;14.63;100.00
11448;BME280;43755;49.736;8.734;2022-10-23T04:19:39;97751.22;;;14.67;100.00
11448;BME280;43755;49.736;8.734;2022-10-23T04:21:41;97753.59;;;14.57;100.00
11448;BME280;43755;49.736;8.734;2022-10-23T04:23:43;97759.41;;;14.50;100.00
11448;BME280;43755;49.736;8.734;2022-10-23T04:25:44;97752.56;;;14.46;100.00
11448;BME280;43755;49.736;8.734;2022-10-23T04:27:47;97756.72;;;14.35;100.00
11448;BME280;43755;49.736;8.734;2022-10-23T04:29:50;97758.25;;;14.25;100.00
11448;BME280;43755;49.736;8.734;2022-10-23T04:31:51;97756.59;;;14.09;100.00
11448;BME280;43755;49.736;8.734;2022-10-23T04:33:52;97769.03;;;14.08;100.00
11448;BME280;43755;49.736;8.734;2022-10-23T04:35:54;97763.16;;;14.17;100.00
11448;BME280;43755;49.736;8.734;2022-10-23T04:37:55;97755.09;;;14.19;100.00
11448;BME280;43755;49.736;8.734;2022-10-23T04:39:57;97752.81;;;14.27;100.00
11448;BME280;43755;49.736;8.734;2022-10-23T04:41:58;97750.63;;;14.33;100.00
11448;BME280;43755;49.736;8.734;2022-10-23T04:43:59;97742.06;;;14.28;100.00
11448;BME280;43755;49.736;8.734;2022-10-23T04:46:02;97743.09;;;14.26;100.00
11448;BME280;43755;49.736;8.734;2022-10-23T04:48:04;97742.81;;;14.16;100.00
11448;BME280;43755;49.736;8.734;2022-10-23T04:50:06;97746.50;;;14.14;100.00
11448;BME280;43755;49.736;8.734;2022-10-23T04:52:07;97748.72;;;14.07;100.00
11448;BME280;43755;49.736;8.734;2022-10-23T04:54:09;97751.09;;;14.26;100.00
11448;BME280;43755;49.736;8.734;2022-10-23T04:56:12;97756.41;;;14.12;100.00
11448;BME280;43755;49.736;8.734;2022-10-23T04:58:13;97751.38;;;14.07;100.00
11448;BME280;43755;49.736;8.734;2022-10-23T05:00:16;97749.09;;;14.15;100.00
11448;BME280;43755;49.736;8.734;2022-10-23T05:02:18;97748.44;;;14.26;100.00
11448;BME280;43755;49.736;8.734;2022-10-23T05:04:20;97749.84;;;14.31;100.00
11448;BME280;43755;49.736;8.734;2022-10-23T05:06:21;97751.13;;;14.40;100.00
11448;BME280;43755;49.736;8.734;2022-10-23T05:08:23;97746.59;;;14.42;100.00
11448;BME280;43755;49.736;8.734;2022-10-23T05:10:25;97729.75;;;14.42;100.00
11448;BME280;43755;49.736;8.734;2022-10-23T05:12:26;97735.16;;;14.40;100.00
11448;BME280;43755;49.736;8.734;2022-10-23T05:14:28;97733.16;;;14.29;100.00
11448;BME280;43755;49.736;8.734;2022-10-23T05:16:35;97730.00;;;14.23;100.00
11448;BME280;43755;49.736;8.734;2022-10-23T05:18:42;97726.50;;;14.22;100.00
11448;BME280;43755;49.736;8.734;2022-10-23T05:20:46;97727.16;;;14.12;100.00
11448;BME280;43755;49.736;8.734;2022-10-23T05:22:51;97735.41;;;14.07;100.00
11448;BME280;43755;49.736;8.734;2022-10-23T05:24:54;97729.69;;;13.99;100.00
11448;BME280;43755;49.736;8.734;2022-10-23T05:26:56;97731.34;;;14.02;100.00
11448;BME280;43755;49.736;8.734;2022-10-23T05:28:58;97730.28;;;14.04;100.00
11448;BME280;43755;49.736;8.734;2022-10-23T05:31:02;97723.06;;;14.20;100.00
11448;BME280;43755;49.736;8.734;2022-10-23T05:33:04;97722.09;;;14.21;100.00
11448;BME280;43755;49.736;8.734;2022-10-23T05:35:10;97726.88;;;14.16;100.00
11448;BME280;43755;49.736;8.734;2022-10-23T05:37:14;97718.97;;;14.15;100.00
11448;BME280;43755;49.736;8.734;2022-10-23T05:39:16;97720.78;;;14.14;100.00
11448;BME280;43755;49.736;8.734;2022-10-23T05:41:18;97711.66;;;14.18;100.00
11448;BME280;43755;49.736;8.734;2022-10-23T05:43:19;97707.09;;;14.20;100.00
11448;BME280;43755;49.736;8.734;2022-10-23T05:45:20;97697.03;;;14.25;100.00
11448;BME280;43755;49.736;8.734;2022-10-23T05:47:22;97696.81;;;14.14;100.00
11448;BME280;43755;49.736;8.734;2022-10-23T05:49:23;97697.97;;;14.10;100.00
11448;BME280;43755;49.736;8.734;2022-10-23T05:51:26;97689.91;;;14.12;100.00
11448;BME280;43755;49.736;8.734;2022-10-23T05:53:28;97690.84;;;14.11;100.00
11448;BME280;43755;49.736;8.734;2022-10-23T05:55:29;97691.25;;;14.19;100.00
11448;BME280;43755;49.736;8.734;2022-10-23T05:57:31;97699.41;;;14.16;100.00
11448;BME280;43755;49.736;8.734;2022-10-23T05:59:32;97698.47;;;14.17;100.00
11448;BME280;43755;49.736;8.734;2022-10-23T06:01:34;97689.63;;;14.30;100.00
11448;BME280;43755;49.736;8.734;2022-10-23T06:03:36;97688.84;;;14.28;100.00
11448;BME280;43755;49.736;8.734;2022-10-23T06:05:38;97687.81;;;14.31;100.00
11448;BME280;43755;49.736;8.734;2022-10-23T06:07:40;97685.56;;;14.39;100.00
11448;BME280;43755;49.736;8.734;2022-10-23T06:09:42;97679.94;;;14.44;100.00
11448;BME280;43755;49.736;8.734;2022-10-23T06:11:43;97690.00;;;14.53;100.00
11448;BME280;43755;49.736;8.734;2022-10-23T06:13:45;97680.22;;;14.53;100.00
11448;BME280;43755;49.736;8.734;2022-10-23T06:15:47;97680.31;;;14.52;100.00
11448;BME280;43755;49.736;8.734;2022-10-23T06:17:49;97681.47;;;14.48;100.00
11448;BME280;43755;49.736;8.734;2022-10-23T06:19:50;97675.75;;;14.40;100.00
11448;BME280;43755;49.736;8.734;2022-10-23T06:21:51;97684.09;;;14.33;100.00
11448;BME280;43755;49.736;8.734;2022-10-23T06:23:55;97681.66;;;14.30;100.00
11448;BME280;43755;49.736;8.734;2022-10-23T06:25:56;97685.06;;;14.18;100.00
11448;BME280;43755;49.736;8.734;2022-10-23T06:27:58;97688.28;;;14.09;100.00
11448;BME280;43755;49.736;8.734;2022-10-23T06:29:59;97675.47;;;14.02;100.00
11448;BME280;43755;49.736;8.734;2022-10-23T06:32:00;97671.28;;;13.98;100.00
11448;BME280;43755;49.736;8.734;2022-10-23T06:34:02;97670.59;;;14.08;100.00
11448;BME280;43755;49.736;8.734;2022-10-23T06:36:06;97669.88;;;14.06;100.00
11448;BME280;43755;49.736;8.734;2022-10-23T06:38:09;97668.25;;;14.04;100.00
11448;BME280;43755;49.736;8.734;2022-10-23T06:40:12;97664.91;;;14.14;100.00
11448;BME280;43755;49.736;8.734;2022-10-23T06:42:13;97666.16;;;14.23;100.00
11448;BME280;43755;49.736;8.734;2022-10-23T06:44:15;97666.41;;;14.32;100.00
11448;BME280;43755;49.736;8.734;2022-10-23T06:46:17;97668.03;;;14.35;100.00
11448;BME280;43755;49.736;8.734;2022-10-23T06:48:19;97657.59;;;14.46;100.00
11448;BME280;43755;49.736;8.734;2022-10-23T06:50:20;97662.53;;;14.52;100.00
11448;BME280;43755;49.736;8.734;2022-10-23T06:52:22;97665.75;;;14.43;100.00
11448;BME280;43755;49.736;8.734;2022-10-23T06:54:23;97662.72;;;14.35;100.00
11448;BME280;43755;49.736;8.734;2022-10-23T06:56:26;97674.53;;;14.31;100.00
11448;BME280;43755;49.736;8.734;2022-10-23T06:58:29;97679.63;;;14.34;100.00
11448;BME280;43755;49.736;8.734;2022-10-23T07:00:31;97677.28;;;14.29;100.00
11448;BME280;43755;49.736;8.734;2022-10-23T07:02:32;97677.56;;;14.25;100.00
11448;BME280;43755;49.736;8.734;2022-10-23T07:04:33;97679.53;;;14.21;100.00
11448;BME280;43755;49.736;8.734;2022-10-23T07:06:35;97673.56;;;14.18;100.00
11448;BME280;43755;49.736;8.734;2022-10-23T07:08:36;97683.34;;;14.17;100.00
11448;BME280;43755;49.736;8.734;2022-10-23T07:10:39;97684.69;;;14.24;100.00
11448;BME280;43755;49.736;8.734;2022-10-23T07:12:43;97682.38;;;14.32;100.00
11448;BME280;43755;49.736;8.734;2022-10-23T07:14:46;97686.88;;;14.46;100.00
11448;BME280;43755;49.736;8.734;2022-10-23T07:16:48;97684.28;;;14.59;100.00
11448;BME280;43755;49.736;8.734;2022-10-23T07:18:54;97689.03;;;14.68;100.00
11448;BME280;43755;49.736;8.734;2022-10-23T07:20:57;97682.72;;;14.83;100.00
11448;BME280;43755;49.736;8.734;2022-10-23T07:22:59;97692.69;;;14.94;100.00
11448;BME280;43755;49.736;8.734;2022-10-23T07:25:00;97699.00;;;15.05;100.00
11448;BME280;43755;49.736;8.734;2022-10-23T07:27:02;97697.25;;;15.19;100.00
11448;BME280;43755;49.736;8.734;2022-10-23T07:29:04;97695.69;;;15.29;100.00
11448;BME280;43755;49.736;8.734;2022-10-23T07:31:07;97694.09;;;15.39;100.00
11448;BME280;43755;49.736;8.734;2022-10-23T07:33:08;97689.53;;;15.41;100.00
11448;BME280;43755;49.736;8.734;2022-10-23T07:35:11;97683.13;;;15.43;100.00
11448;BME280;43755;49.736;8.734;2022-10-23T07:37:13;97681.75;;;15.50;100.00
11448;BME280;43755;49.736;8.734;2022-10-23T07:39:14;97686.16;;;15.51;100.00
11448;BME280;43755;49.736;8.734;2022-10-23T07:41:15;97684.91;;;15.57;100.00
11448;BME280;43755;49.736;8.734;2022-10-23T07:43:17;97681.59;;;15.53;100.00
11448;BME280;43755;49.736;8.734;2022-10-23T07:45:21;97679.25;;;15.62;100.00
11448;BME280;43755;49.736;8.734;2022-10-23T07:47:22;97679.38;;;15.73;100.00
11448;BME280;43755;49.736;8.734;2022-10-23T07:49:24;97681.84;;;15.76;100.00
11448;BME280;43755;49.736;8.734;2022-10-23T07:51:25;97683.03;;;15.84;100.00
11448;BME280;43755;49.736;8.734;2022-10-23T07:53:27;97678.78;;;15.94;100.00
11448;BME280;43755;49.736;8.734;2022-10-23T07:55:28;97682.41;;;16.06;100.00
11448;BME280;43755;49.736;8.734;2022-10-23T07:57:30;97684.13;;;16.07;100.00
11448;BME280;43755;49.736;8.734;2022-10-23T07:59:31;97677.06;;;16.19;100.00
11448;BME280;43755;49.736;8.734;2022-10-23T08:01:36;97675.88;;;16.23;100.00
11448;BME280;43755;49.736;8.734;2022-10-23T08:03:38;97680.88;;;16.27;100.00
11448;BME280;43755;49.736;8.734;2022-10-23T08:05:39;97678.72;;;16.32;100.00
11448;BME280;43755;49.736;8.734;2022-10-23T08:07:41;97671.66;;;16.44;100.00
11448;BME280;43755;49.736;8.734;2022-10-23T08:09:42;97670.38;;;16.50;100.00
11448;BME280;43755;49.736;8.734;2022-10-23T08:11:43;97683.00;;;16.60;100.00
11448;BME280;43755;49.736;8.734;2022-10-23T08:13:45;97674.56;;;16.66;100.00
11448;BME280;43755;49.736;8.734;2022-10-23T08:15:47;97670.78;;;16.69;100.00
11448;BME280;43755;49.736;8.734;2022-10-23T08:17:50;97671.28;;;16.87;100.00
11448;BME280;43755;49.736;8.734;2022-10-23T08:19:51;97659.78;;;16.97;100.00
11448;BME280;43755;49.736;8.734;2022-10-23T08:21:53;97656.97;;;17.11;100.00
11448;BME280;43755;49.736;8.734;2022-10-23T08:23:57;97652.88;;;17.18;100.00
11448;BME280;43755;49.736;8.734;2022-10-23T08:26:01;97653.66;;;17.32;100.00
11448;BME280;43755;49.736;8.734;2022-10-23T08:28:03;97648.69;;;17.38;95.67
11448;BME280;43755;49.736;8.734;2022-10-23T08:30:06;97650.78;;;17.46;95.80
11448;BME280;43755;49.736;8.734;2022-10-23T08:32:07;97645.22;;;17.49;95.40
11448;BME280;43755;49.736;8.734;2022-10-23T08:34:10;97649.84;;;17.58;97.31
11448;BME280;43755;49.736;8.734;2022-10-23T08:36:16;97632.75;;;17.61;90.51
11448;BME280;43755;49.736;8.734;2022-10-23T08:38:18;97637.38;;;17.70;92.29
11448;BME280;43755;49.736;8.734;2022-10-23T08:40:22;97635.94;;;17.66;90.18
11448;BME280;43755;49.736;8.734;2022-10-23T08:42:25;97629.28;;;17.82;93.00
11448;BME280;43755;49.736;8.734;2022-10-23T08:44:31;97627.56;;;17.92;89.64
11448;BME280;43755;49.736;8.734;2022-10-23T08:46:37;97625.75;;;18.04;94.06
11448;BME280;43755;49.736;8.734;2022-10-23T08:48:44;97624.19;;;18.13;93.62
11448;BME280;43755;49.736;8.734;2022-10-23T08:50:53;97624.41;;;18.10;86.92
11448;BME280;43755;49.736;8.734;2022-10-23T08:53:02;97630.16;;;18.05;87.97
11448;BME280;43755;49.736;8.734;2022-10-23T08:55:14;97637.22;;;18.17;90.49
11448;BME280;43755;49.736;8.734;2022-10-23T08:57:16;97642.66;;;18.27;88.86
11448;BME280;43755;49.736;8.734;2022-10-23T08:59:21;97626.00;;;18.34;85.76
11448;BME280;43755;49.736;8.734;2022-10-23T09:01:36;97632.69;;;18.51;86.04
11448;BME280;43755;49.736;8.734;2022-10-23T09:03:38;97625.75;;;18.49;82.79
11448;BME280;43755;49.736;8.734;2022-10-23T09:05:51;97633.91;;;18.47;83.09
11448;BME280;43755;49.736;8.734;2022-10-23T09:08:04;97640.25;;;18.46;83.68
11448;BME280;43755;49.736;8.734;2022-10-23T09:10:32;97640.03;;;18.60;84.49
11448;BME280;43755;49.736;8.734;2022-10-23T09:12:34;97642.19;;;18.77;85.35
11448;BME280;43755;49.736;8.734;2022-10-23T09:14:52;97629.63;;;18.89;82.33
11448;BME280;43755;49.736;8.734;2022-10-23T09:17:06;97634.03;;;19.11;82.28
11448;BME280;43755;49.736;8.734;2022-10-23T09:19:15;97633.06;;;19.12;76.73
11448;BME280;43755;49.736;8.734;2022-10-23T09:21:18;97635.38;;;19.16;78.31
11448;BME280;43755;49.736;8.734;2022-10-23T09:23:22;97626.22;;;19.19;78.81
11448;BME280;43755;49.736;8.734;2022-10-23T09:25:26;97628.25;;;19.27;75.71
11448;BME280;43755;49.736;8.734;2022-10-23T09:27:28;97622.88;;;19.38;75.99
11448;BME280;43755;49.736;8.734;2022-10-23T09:29:32;97631.22;;;19.44;75.40
11448;BME280;43755;49.736;8.734;2022-10-23T09:31:47;97624.03;;;19.45;72.89
11448;BME280;43755;49.736;8.734;2022-10-23T09:33:55;97619.34;;;19.58;72.88
11448;BME280;43755;49.736;8.734;2022-10-23T09:36:00;97624.72;;;19.58;72.64
11448;BME280;43755;49.736;8.734;2022-10-23T09:38:03;97613.59;;;19.62;72.23
11448;BME280;43755;49.736;8.734;2022-10-23T09:40:17;97613.00;;;19.80;71.35
11448;BME280;43755;49.736;8.734;2022-10-23T09:42:21;97610.31;;;19.80;70.80
11448;BME280;43755;49.736;8.734;2022-10-23T09:44:25;97606.78;;;19.79;72.07
11448;BME280;43755;49.736;8.734;2022-10-23T09:46:36;97603.72;;;19.84;72.26
11448;BME280;43755;49.736;8.734;2022-10-23T09:48:38;97611.56;;;19.76;69.84
11448;BME280;43755;49.736;8.734;2022-10-23T09:50:51;97615.97;;;19.77;70.50
11448;BME280;43755;49.736;8.734;2022-10-23T09:52:53;97622.91;;;19.58;71.69
11448;BME280;43755;49.736;8.734;2022-10-23T09:54:58;97631.69;;;19.60;71.96
11448;BME280;43755;49.736;8.734;2022-10-23T09:57:05;97628.66;;;19.75;73.77
11448;BME280;43755;49.736;8.734;2022-10-23T09:59:20;97634.56;;;19.89;72.42
11448;BME280;43755;49.736;8.734;2022-10-23T10:01:25;97632.31;;;19.94;71.10
11448;BME280;43755;49.736;8.734;2022-10-23T10:03:27;97628.31;;;19.89;71.96
11448;BME280;43755;49.736;8.734;2022-10-23T10:05:31;97631.25;;;19.86;71.73
11448;BME280;43755;49.736;8.734;2022-10-23T10:07:32;97640.03;;;19.88;74.15
11448;BME280;43755;49.736;8.734;2022-10-23T10:09:34;97636.38;;;19.89;72.86
11448;BME280;43755;49.736;8.734;2022-10-23T10:11:40;97634.88;;;19.96;72.26
11448;BME280;43755;49.736;8.734;2022-10-23T10:16:10;97622.84;;;19.90;80.65
11448;BME280;43755;49.736;8.734;2022-10-23T10:18:20;97617.72;;;19.87;80.96
11448;BME280;43755;49.736;8.734;2022-10-23T10:20:53;97602.25;;;19.80;78.82
11448;BME280;43755;49.736;8.734;2022-10-23T10:23:04;97596.59;;;19.73;81.61
11448;BME280;43755;49.736;8.734;2022-10-23T10:25:11;97588.91;;;19.69;84.86
11448;BME280;43755;49.736;8.734;2022-10-23T10:27:29;97589.72;;;19.59;82.77
11448;BME280;43755;49.736;8.734;2022-10-23T10:29:43;97594.13;;;19.60;85.30
11448;BME280;43755;49.736;8.734;2022-10-23T10:32:01;97601.88;;;19.43;86.99
11448;BME280;43755;49.736;8.734;2022-10-23T10:34:10;97605.25;;;19.24;82.19
11448;BME280;43755;49.736;8.734;2022-10-23T10:36:28;97601.19;;;19.30;93.98
11448;BME280;43755;49.736;8.734;2022-10-23T10:38:42;97586.28;;;19.37;89.21
11448;BME280;43755;49.736;8.734;2022-10-23T10:40:53;97576.50;;;19.47;86.57
11448;BME280;43755;49.736;8.734;2022-10-23T10:43:13;97588.88;;;19.59;83.70
11448;BME280;43755;49.736;8.734;2022-10-23T10:45:22;97591.56;;;19.59;85.73
11448;BME280;43755;49.736;8.734;2022-10-23T10:47:31;97584.94;;;19.63;81.23
11448;BME280;43755;49.736;8.734;2022-10-23T10:49:35;97588.34;;;19.65;83.90
11448;BME280;43755;49.736;8.734;2022-10-23T10:51:48;97579.56;;;19.63;80.64
11448;BME280;43755;49.736;8.734;2022-10-23T10:54:02;97572.66;;;19.60;87.20
11448;BME280;43755;49.736;8.734;2022-10-23T10:56:07;97565.56;;;19.59;94.53